Achim Manz-Bothe 1:30:00 row

21,236

Meters

1:30:00.0

Time

2:07.1

Pace

1314

Calories

120

Heart Rate

Average Watts170
Calories Per Hour876
Stroke Rate28

April 05, 2019 12:28:00

Workout
RowErg

Workout Type
Fixed Time

Weight Class
Hwt

Verified
Yes

Entered
Concept2 Utility

Splits

Time Meters Pace Watts Cal/Hr Cal S/M
1:30:00.0 21,236 2:07.1 170 876 1314 28 120
3:00.0 694 2:09.6 160 840 42 27 112
6:00.0 700 2:08.5 165 860 43 28 115
9:00.0 703 2:08.0 167 860 43 28 118
12:00.0 709 2:06.9 171 880 44 28 119
15:00.0 710 2:06.7 172 880 44 28 118
18:00.0 711 2:06.5 173 880 44 28 119
21:00.0 711 2:06.5 173 880 44 28 121
24:00.0 710 2:06.7 172 880 44 29 122
27:00.0 709 2:06.9 171 880 44 29 121
30:00.0 709 2:06.9 171 880 44 29 122
33:00.0 707 2:07.2 170 880 44 28 122
36:00.0 707 2:07.2 170 880 44 29 122
39:00.0 708 2:07.1 170 880 44 28 123
42:00.0 708 2:07.1 170 880 44 28 121
45:00.0 710 2:06.7 172 880 44 29 123
48:00.0 710 2:06.7 172 880 44 28 124
51:00.0 711 2:06.5 173 880 44 28 118
54:00.0 712 2:06.4 173 880 44 28 122
57:00.0 651 2:18.2 132 740 37 25 110
1:00:00.0 717 2:05.5 177 900 45 29 122
1:03:00.0 715 2:05.8 175 900 45 28 121
1:06:00.0 714 2:06.0 175 900 45 28 118
1:09:00.0 710 2:06.7 172 880 44 28 117
1:12:00.0 712 2:06.4 173 880 44 28 120
1:15:00.0 715 2:05.8 175 900 45 28 122
1:18:00.0 716 2:05.6 176 900 45 28 123
1:21:00.0 713 2:06.2 174 880 44 28 123
1:24:00.0 713 2:06.2 174 880 44 28 123
1:27:00.0 718 2:05.3 178 900 45 28 121
1:30:00.0 704 2:07.8 168 860 43 28 118